createdAt,value
2022-10-21T00:00:32.380Z,16.92
2022-10-21T00:02:58.718Z,17.40
2022-10-21T00:05:25.117Z,15.48
2022-10-21T00:07:51.536Z,16.23
2022-10-21T00:10:17.969Z,16.05
2022-10-21T00:12:44.296Z,15.95
2022-10-21T00:15:11.445Z,15.95
2022-10-21T00:17:39.293Z,15.43
2022-10-21T00:20:06.949Z,16.70
2022-10-21T00:22:33.518Z,15.98
2022-10-21T00:24:59.889Z,15.82
2022-10-21T00:27:26.702Z,16.42
2022-10-21T00:29:53.122Z,15.38
2022-10-21T00:32:19.561Z,15.32
2022-10-21T00:34:46.909Z,15.90
2022-10-21T00:37:13.841Z,16.50
2022-10-21T00:39:40.344Z,16.33
2022-10-21T00:42:07.836Z,15.60
2022-10-21T00:44:35.272Z,16.55
2022-10-21T00:47:03.853Z,15.45
2022-10-21T00:49:30.212Z,17.40
2022-10-21T00:51:58.754Z,16.08
2022-10-21T00:54:26.252Z,15.88
2022-10-21T00:56:54.258Z,15.35
2022-10-21T00:59:22.475Z,16.67
2022-10-21T01:01:49.220Z,16.63
2022-10-21T01:04:15.614Z,17.20
2022-10-21T01:06:42.307Z,16.88
2022-10-21T01:09:08.863Z,17.90
2022-10-21T01:11:42.499Z,16.70
2022-10-21T01:14:19.459Z,19.27
2022-10-21T01:16:50.422Z,18.30
2022-10-21T01:19:16.784Z,19.10
2022-10-21T01:21:53.832Z,18.85
2022-10-21T01:24:45.871Z,18.20
2022-10-21T01:27:24.592Z,17.05
2022-10-21T01:30:09.913Z,18.92
2022-10-21T01:32:40.566Z,19.20
2022-10-21T01:35:26.564Z,19.90
2022-10-21T01:38:06.789Z,18.77
2022-10-21T01:40:35.901Z,18.33
2022-10-21T01:43:08.049Z,18.13
2022-10-21T01:45:49.466Z,20.02
2022-10-21T01:48:20.753Z,20.15
2022-10-21T01:50:49.959Z,18.77
2022-10-21T01:53:16.994Z,19.35
2022-10-21T01:55:45.136Z,19.65
2022-10-21T01:58:31.273Z,17.60
2022-10-21T02:00:59.684Z,19.50
2022-10-21T02:03:28.653Z,18.63
2022-10-21T02:05:55.018Z,19.02
2022-10-21T02:08:21.436Z,18.20
2022-10-21T02:10:49.349Z,20.27
2022-10-21T02:13:18.526Z,19.08
2022-10-21T02:15:44.970Z,18.92
2022-10-21T02:18:19.033Z,20.15
2022-10-21T02:20:45.410Z,18.52
2022-10-21T02:23:13.491Z,19.17
2022-10-21T02:25:41.816Z,19.08
2022-10-21T02:28:08.403Z,18.25
2022-10-21T02:30:41.352Z,18.33
2022-10-21T02:33:12.229Z,18.67
2022-10-21T02:35:57.972Z,17.77
2022-10-21T02:38:33.298Z,20.35
2022-10-21T02:41:04.494Z,17.98
2022-10-21T02:43:33.116Z,17.70
2022-10-21T02:46:00.585Z,19.33
2022-10-21T02:48:26.970Z,18.17
2022-10-21T02:50:53.351Z,18.58
2022-10-21T02:53:19.681Z,18.48
2022-10-21T02:55:46.009Z,17.77
2022-10-21T02:58:12.358Z,17.65
2022-10-21T03:00:38.856Z,18.58
2022-10-21T03:03:05.289Z,21.27
2022-10-21T03:08:03.010Z,17.30
2022-10-21T03:10:29.321Z,16.73
2022-10-21T03:12:55.637Z,17.77
2022-10-21T03:15:22.001Z,18.20
2022-10-21T03:17:48.420Z,16.92
2022-10-21T03:20:14.946Z,17.35
2022-10-21T03:22:41.310Z,17.67
2022-10-21T03:25:08.037Z,17.58
2022-10-21T03:27:34.430Z,17.60
2022-10-21T03:30:00.762Z,18.40
2022-10-21T03:32:27.102Z,16.73
2022-10-21T03:34:53.512Z,17.85
2022-10-21T03:37:19.926Z,17.52
2022-10-21T03:39:47.313Z,17.95
2022-10-21T03:42:13.785Z,17.23
2022-10-21T03:44:40.851Z,18.45
2022-10-21T03:47:07.373Z,17.92
2022-10-21T03:52:05.214Z,18.85
2022-10-21T03:54:31.583Z,18.10
2022-10-21T03:56:57.904Z,18.20
2022-10-21T03:59:24.361Z,17.10
2022-10-21T04:01:50.764Z,17.75
2022-10-21T04:04:17.168Z,18.75
2022-10-21T04:06:43.590Z,18.27
2022-10-21T04:09:09.983Z,18.95
2022-10-21T04:11:36.473Z,18.63
2022-10-21T04:14:03.026Z,19.60
2022-10-21T04:16:29.465Z,17.98
2022-10-21T04:18:55.908Z,17.48
2022-10-21T04:23:49.651Z,18.25
2022-10-21T04:26:17.217Z,18.20
2022-10-21T04:28:43.557Z,18.08
2022-10-21T04:31:10.418Z,18.60
2022-10-21T04:33:36.825Z,17.15
2022-10-21T04:36:03.234Z,17.10
2022-10-21T04:38:29.670Z,16.80
2022-10-21T04:41:00.510Z,16.95
2022-10-21T04:43:27.277Z,16.92
2022-10-21T04:45:53.785Z,17.17
2022-10-21T04:48:20.566Z,17.08
2022-10-21T04:50:50.849Z,16.85
2022-10-21T04:53:17.348Z,15.88
2022-10-21T04:55:44.107Z,16.85
2022-10-21T04:58:10.456Z,16.30
2022-10-21T05:00:36.945Z,17.58
2022-10-21T05:03:03.732Z,16.80
2022-10-21T05:05:30.106Z,16.63
2022-10-21T05:07:56.392Z,15.63
2022-10-21T05:10:23.794Z,16.08
2022-10-21T05:12:50.172Z,17.95
2022-10-21T05:15:16.564Z,17.10
2022-10-21T05:17:42.940Z,16.98
2022-10-21T05:20:09.519Z,16.05
2022-10-21T05:22:36.268Z,16.95
2022-10-21T05:25:02.958Z,16.42
2022-10-21T05:27:29.317Z,16.40
2022-10-21T05:29:56.509Z,17.17
2022-10-21T05:32:24.265Z,16.65
2022-10-21T05:34:50.775Z,16.15
2022-10-21T05:37:17.213Z,14.65
2022-10-21T05:39:44.518Z,16.88
2022-10-21T05:42:10.865Z,15.30
2022-10-21T05:44:38.182Z,16.73
2022-10-21T05:47:04.584Z,16.33
2022-10-21T05:49:30.926Z,16.00
2022-10-21T05:51:57.409Z,15.63
2022-10-21T05:54:23.696Z,13.98
2022-10-21T05:56:49.941Z,14.77
2022-10-21T05:59:16.325Z,15.32
2022-10-21T06:01:42.740Z,15.43
2022-10-21T06:04:09.051Z,14.27
2022-10-21T06:06:35.349Z,13.60
2022-10-21T06:09:02.175Z,14.88
2022-10-21T06:11:28.526Z,14.88
2022-10-21T06:13:54.912Z,13.18
2022-10-21T06:16:21.278Z,13.95
2022-10-21T06:18:47.576Z,14.93
2022-10-21T06:21:13.904Z,13.90
2022-10-21T06:23:40.254Z,13.40
2022-10-21T06:26:07.809Z,13.27
2022-10-21T06:28:35.257Z,13.68
2022-10-21T06:31:01.993Z,14.07
2022-10-21T06:33:28.332Z,13.90
2022-10-21T06:35:55.187Z,13.95
2022-10-21T06:38:21.679Z,13.80
2022-10-21T06:40:48.772Z,12.77
2022-10-21T06:43:15.895Z,13.60
2022-10-21T06:45:42.274Z,12.80
2022-10-21T06:48:08.618Z,12.98
2022-10-21T06:50:36.577Z,13.40
2022-10-21T06:53:02.918Z,13.05
2022-10-21T06:55:29.291Z,12.10
2022-10-21T06:57:55.584Z,11.90
2022-10-21T07:00:22.080Z,12.02
2022-10-21T07:02:48.774Z,12.57
2022-10-21T07:05:15.116Z,12.48
2022-10-21T07:07:41.840Z,11.80
2022-10-21T07:10:08.320Z,12.38
2022-10-21T07:12:34.676Z,12.93
2022-10-21T07:15:01.025Z,12.45
2022-10-21T07:17:28.696Z,13.02
2022-10-21T07:19:55.017Z,12.73
2022-10-21T07:22:21.352Z,12.48
2022-10-21T07:24:47.723Z,12.65
2022-10-21T07:27:14.110Z,12.10
2022-10-21T07:29:40.477Z,11.70
2022-10-21T07:32:06.825Z,11.85
2022-10-21T07:34:33.174Z,11.85
2022-10-21T07:36:59.511Z,11.32
2022-10-21T07:39:26.479Z,10.63
2022-10-21T07:41:54.278Z,11.30
2022-10-21T07:44:21.806Z,10.80
2022-10-21T07:46:48.913Z,10.90
2022-10-21T07:49:16.385Z,10.75
2022-10-21T07:51:43.535Z,10.68
2022-10-21T07:54:09.867Z,11.13
2022-10-21T07:56:40.781Z,10.60
2022-10-21T07:59:12.487Z,10.85
2022-10-21T08:01:40.424Z,10.00
2022-10-21T08:04:06.900Z,10.85
2022-10-21T08:06:33.308Z,10.23
2022-10-21T08:08:59.791Z,9.98
2022-10-21T08:11:27.576Z,9.52
2022-10-21T08:13:54.456Z,9.88
2022-10-21T08:16:20.996Z,9.55
2022-10-21T08:18:47.672Z,10.30
2022-10-21T08:21:14.284Z,9.63
2022-10-21T08:23:40.722Z,9.48
2022-10-21T08:26:08.164Z,8.93
2022-10-21T08:28:34.476Z,9.23
2022-10-21T08:31:05.428Z,8.77
2022-10-21T08:33:32.090Z,9.35
2022-10-21T08:35:58.949Z,9.05
2022-10-21T08:38:25.273Z,8.35
2022-10-21T08:40:54.930Z,8.50
2022-10-21T08:43:27.213Z,8.30
2022-10-21T08:46:04.393Z,9.27
2022-10-21T08:48:33.336Z,7.93
2022-10-21T08:51:00.014Z,7.53
2022-10-21T08:53:36.625Z,8.32
2022-10-21T08:56:09.360Z,8.13
2022-10-21T08:58:35.717Z,8.15
2022-10-21T09:01:09.864Z,7.55
2022-10-21T09:03:44.965Z,8.30
2022-10-21T09:06:15.252Z,7.60
2022-10-21T09:09:00.256Z,8.38
2022-10-21T09:11:29.639Z,7.38
2022-10-21T09:14:02.094Z,8.50
2022-10-21T09:16:32.835Z,7.90
2022-10-21T09:18:59.119Z,7.20
2022-10-21T09:21:28.437Z,7.63
2022-10-21T09:24:09.747Z,7.32
2022-10-21T09:26:36.020Z,7.47
2022-10-21T09:29:21.315Z,7.38
2022-10-21T09:31:54.323Z,7.22
2022-10-21T09:34:31.156Z,7.30
2022-10-21T09:36:57.827Z,6.90
2022-10-21T09:39:37.625Z,7.57
2022-10-21T09:42:11.484Z,6.65
2022-10-21T09:44:45.301Z,8.10
2022-10-21T09:47:19.725Z,6.88
2022-10-21T09:50:18.246Z,7.32
2022-10-21T09:52:36.180Z,7.32
2022-10-21T09:55:03.275Z,6.93
2022-10-21T09:57:29.588Z,7.82
2022-10-21T09:59:58.708Z,7.50
2022-10-21T10:02:31.393Z,8.18
2022-10-21T10:04:57.756Z,6.28
2022-10-21T10:07:29.821Z,8.18
2022-10-21T10:09:56.121Z,7.10
2022-10-21T10:12:24.363Z,8.38
2022-10-21T10:14:51.060Z,7.88
2022-10-21T10:17:20.395Z,7.15
2022-10-21T10:20:05.295Z,8.63
2022-10-21T10:22:33.240Z,7.45
2022-10-21T10:25:08.681Z,7.18
2022-10-21T10:27:35.113Z,7.72
2022-10-21T10:30:01.676Z,7.90
2022-10-21T10:32:33.573Z,7.20
2022-10-21T10:35:03.044Z,8.32
2022-10-21T10:37:33.160Z,7.25
2022-10-21T10:40:01.036Z,8.35
2022-10-21T10:42:29.411Z,7.78
2022-10-21T10:44:57.488Z,7.00
2022-10-21T10:47:28.952Z,8.40
2022-10-21T10:49:55.309Z,7.47
2022-10-21T10:52:24.089Z,7.53
2022-10-21T10:55:08.873Z,7.32
2022-10-21T10:57:44.404Z,6.97
2022-10-21T11:00:22.236Z,6.45
2022-10-21T11:02:57.168Z,6.20
2022-10-21T11:05:56.020Z,6.82
2022-10-21T11:08:31.917Z,6.07
2022-10-21T11:11:02.674Z,6.10
2022-10-21T11:13:29.025Z,6.47
2022-10-21T11:16:19.192Z,6.90
2022-10-21T11:18:49.356Z,6.88
2022-10-21T11:21:33.773Z,6.53
2022-10-21T11:24:00.112Z,6.88
2022-10-21T11:26:33.124Z,6.07
2022-10-21T11:29:12.583Z,5.85
2022-10-21T11:32:10.557Z,5.70
2022-10-21T11:34:50.103Z,5.13
2022-10-21T11:37:24.789Z,5.32
2022-10-21T11:40:03.368Z,5.07
2022-10-21T11:42:40.739Z,4.22
2022-10-21T11:45:28.700Z,4.80
2022-10-21T11:48:07.018Z,4.75
2022-10-21T11:50:43.869Z,4.93
2022-10-21T11:53:19.303Z,4.57
2022-10-21T11:56:04.424Z,4.43
2022-10-21T11:58:43.680Z,3.72
2022-10-21T12:01:14.773Z,4.47
2022-10-21T12:03:41.079Z,3.42
2022-10-21T12:06:15.794Z,3.08
2022-10-21T12:08:49.467Z,3.45
2022-10-21T12:11:21.810Z,3.47
2022-10-21T12:13:50.940Z,2.88
2022-10-21T12:16:23.480Z,2.47
2022-10-21T12:18:51.214Z,2.80
2022-10-21T12:21:19.784Z,2.35
2022-10-21T12:23:47.309Z,2.33
2022-10-21T12:26:21.390Z,2.38
2022-10-21T12:28:59.568Z,2.30
2022-10-21T12:31:33.142Z,2.08
2022-10-21T12:33:59.648Z,2.63
2022-10-21T12:36:38.467Z,2.50
2022-10-21T12:39:06.441Z,2.95
2022-10-21T12:41:34.888Z,2.38
2022-10-21T12:44:01.173Z,2.50
2022-10-21T12:46:44.626Z,3.17
2022-10-21T12:49:19.532Z,3.53
2022-10-21T12:51:51.173Z,2.47
2022-10-21T12:54:19.491Z,2.33
2022-10-21T12:56:49.940Z,3.00
2022-10-21T12:59:25.248Z,2.97
2022-10-21T13:02:07.781Z,2.15
2022-10-21T13:07:01.436Z,2.80
2022-10-21T13:09:47.488Z,3.35
2022-10-21T13:12:16.469Z,2.45
2022-10-21T13:14:50.137Z,2.97
2022-10-21T13:17:16.476Z,3.45
2022-10-21T13:19:42.787Z,2.90
2022-10-21T13:22:11.263Z,2.58
2022-10-21T13:24:37.881Z,3.75
2022-10-21T13:27:24.588Z,3.13
2022-10-21T13:29:51.237Z,3.03
2022-10-21T13:32:17.834Z,3.10
2022-10-21T13:34:58.917Z,3.45
2022-10-21T13:37:42.711Z,3.30
2022-10-21T13:40:16.404Z,2.85
2022-10-21T13:42:44.504Z,2.80
2022-10-21T13:45:28.453Z,2.85
2022-10-21T13:48:06.696Z,3.38
2022-10-21T13:50:38.350Z,2.30
2022-10-21T13:53:18.479Z,2.33
2022-10-21T13:55:58.980Z,1.55
2022-10-21T13:58:25.916Z,1.40
2022-10-21T14:00:57.757Z,1.10
2022-10-21T14:03:25.489Z,0.65
2022-10-21T14:05:59.200Z,1.35
2022-10-21T14:08:25.496Z,0.90
2022-10-21T14:10:52.591Z,0.80
2022-10-21T14:13:21.733Z,0.85
2022-10-21T14:15:49.077Z,1.27
2022-10-21T14:18:24.461Z,0.60
2022-10-21T14:20:53.969Z,0.90
2022-10-21T14:23:20.989Z,0.60
2022-10-21T14:25:48.443Z,0.57
2022-10-21T14:28:15.101Z,0.90
2022-10-21T14:30:41.902Z,0.82
2022-10-21T14:33:15.130Z,1.05
2022-10-21T14:35:42.081Z,0.70
2022-10-21T14:38:29.234Z,1.00
2022-10-21T14:40:58.312Z,0.50
2022-10-21T14:43:31.007Z,2.08
2022-10-21T14:45:57.373Z,1.40
2022-10-21T14:48:26.821Z,0.77
2022-10-21T14:51:05.370Z,1.50
2022-10-21T14:53:34.398Z,1.63
2022-10-21T14:56:01.717Z,1.08
2022-10-21T14:58:38.085Z,1.00
2022-10-21T15:01:12.101Z,1.60
2022-10-21T15:03:38.453Z,1.00
2022-10-21T15:06:24.646Z,1.13
2022-10-21T15:08:57.072Z,1.25
2022-10-21T15:11:26.358Z,0.85
2022-10-21T15:14:00.102Z,1.05
2022-10-21T15:16:28.308Z,0.80
2022-10-21T15:18:54.825Z,1.10
2022-10-21T15:21:33.205Z,1.02
2022-10-21T15:23:59.877Z,0.70
2022-10-21T15:26:37.770Z,1.10
2022-10-21T15:29:14.724Z,0.85
2022-10-21T15:31:41.693Z,1.05
2022-10-21T15:34:11.061Z,1.25
2022-10-21T15:36:37.659Z,1.35
2022-10-21T15:39:06.790Z,1.42
2022-10-21T15:41:35.769Z,2.80
2022-10-21T15:44:03.530Z,2.00
2022-10-21T15:46:32.960Z,2.47
2022-10-21T15:49:05.449Z,2.13
2022-10-21T15:53:58.044Z,5.80
2022-10-21T15:56:24.476Z,3.60
2022-10-21T15:58:50.812Z,6.60
2022-10-21T16:01:17.582Z,4.90
2022-10-21T16:03:44.512Z,3.20
2022-10-21T16:06:15.906Z,2.20
2022-10-21T16:08:42.254Z,2.67
2022-10-21T16:13:43.972Z,5.60
2022-10-21T16:16:17.485Z,3.42
2022-10-21T16:18:43.878Z,5.22
2022-10-21T16:21:14.252Z,4.97
2022-10-21T16:23:41.184Z,4.30
2022-10-21T16:26:13.389Z,3.78
2022-10-21T16:28:39.684Z,4.70
2022-10-21T16:31:09.075Z,8.77
2022-10-21T16:33:35.397Z,13.15
2022-10-21T16:36:01.886Z,19.55
2022-10-21T16:38:28.187Z,20.58
2022-10-21T16:40:54.673Z,12.88
2022-10-21T16:43:20.970Z,10.10
2022-10-21T16:45:47.353Z,27.55
2022-10-21T16:48:13.733Z,18.58
2022-10-21T16:50:43.622Z,15.80
2022-10-21T16:53:13.385Z,12.95
2022-10-21T16:55:39.764Z,16.80
2022-10-21T16:58:06.096Z,18.35
2022-10-21T17:00:32.551Z,12.77
2022-10-21T17:02:58.913Z,8.07
2022-10-21T17:05:25.559Z,5.25
2022-10-21T17:07:51.943Z,8.57
2022-10-21T17:10:18.341Z,8.18
2022-10-21T17:12:44.792Z,7.47
2022-10-21T17:15:14.041Z,10.07
2022-10-21T17:17:40.603Z,9.95
2022-10-21T17:20:07.365Z,11.45
2022-10-21T17:22:33.687Z,12.95
2022-10-21T17:25:00.183Z,14.75
2022-10-21T17:27:26.560Z,12.68
2022-10-21T17:29:52.880Z,15.73
2022-10-21T17:32:19.469Z,9.73
2022-10-21T17:34:45.846Z,7.53
2022-10-21T17:37:12.328Z,14.00
2022-10-21T17:39:38.673Z,13.48
2022-10-21T17:42:05.024Z,16.38
2022-10-21T17:44:31.341Z,13.30
2022-10-21T17:46:57.861Z,42.50
2022-10-21T17:49:24.824Z,52.90
2022-10-21T17:51:51.212Z,29.75
2022-10-21T17:54:18.073Z,23.67
2022-10-21T17:56:45.044Z,46.63
2022-10-21T17:59:12.104Z,37.50
2022-10-21T18:01:38.583Z,21.83
2022-10-21T18:04:05.028Z,29.75
2022-10-21T18:06:31.432Z,44.78
2022-10-21T18:08:58.430Z,28.90
2022-10-21T18:11:24.915Z,20.45
2022-10-21T18:13:55.045Z,20.40
2022-10-21T18:16:22.039Z,11.35
2022-10-21T18:18:49.014Z,12.45
2022-10-21T18:21:16.574Z,10.55
2022-10-21T18:23:43.809Z,8.35
2022-10-21T18:26:14.981Z,7.28
2022-10-21T18:28:41.333Z,8.18
2022-10-21T18:31:07.724Z,8.10
2022-10-21T18:33:34.117Z,6.40
2022-10-21T18:36:07.741Z,4.85
2022-10-21T18:38:34.073Z,5.03
2022-10-21T18:41:18.964Z,3.95
2022-10-21T18:43:48.012Z,8.60
2022-10-21T18:46:14.429Z,10.10
2022-10-21T18:48:41.145Z,6.38
2022-10-21T18:51:08.221Z,6.10
2022-10-21T18:53:35.908Z,5.43
2022-10-21T18:56:03.164Z,5.88
2022-10-21T18:58:33.175Z,4.72
2022-10-21T19:00:59.917Z,4.63
2022-10-21T19:03:26.861Z,6.20
2022-10-21T19:05:53.348Z,5.20
2022-10-21T19:08:19.769Z,6.00
2022-10-21T19:10:46.544Z,8.00
2022-10-21T19:13:12.921Z,9.77
2022-10-21T19:15:39.333Z,10.23
2022-10-21T19:18:05.697Z,8.63
2022-10-21T19:20:32.005Z,7.53
2022-10-21T19:22:58.330Z,6.25
2022-10-21T19:25:24.725Z,5.45
2022-10-21T19:27:51.073Z,5.47
2022-10-21T19:30:17.469Z,5.43
2022-10-21T19:32:43.803Z,6.13
2022-10-21T19:35:10.094Z,8.45
2022-10-21T19:37:36.450Z,7.82
2022-10-21T19:40:02.806Z,8.90
2022-10-21T19:42:29.168Z,7.60
2022-10-21T19:44:55.521Z,6.90
2022-10-21T19:47:21.858Z,6.90
2022-10-21T19:49:48.490Z,22.95
2022-10-21T19:52:14.830Z,28.45
2022-10-21T19:54:41.177Z,34.80
2022-10-21T19:57:07.488Z,55.63
2022-10-21T19:59:33.803Z,26.30
2022-10-21T20:02:00.125Z,12.43
2022-10-21T20:04:26.668Z,25.02
2022-10-21T20:06:53.076Z,16.42
2022-10-21T20:09:19.466Z,38.33
2022-10-21T20:11:45.793Z,48.20
2022-10-21T20:14:13.160Z,70.82
2022-10-21T20:16:41.996Z,27.17
2022-10-21T20:19:08.513Z,39.60
2022-10-21T20:21:35.958Z,47.13
2022-10-21T20:24:02.740Z,13.80
2022-10-21T20:26:29.284Z,16.38
2022-10-21T20:28:55.720Z,10.55
2022-10-21T20:31:22.046Z,8.20
2022-10-21T20:33:49.398Z,7.22
2022-10-21T20:36:26.483Z,5.40
2022-10-21T20:38:53.715Z,5.03
2022-10-21T20:41:22.459Z,4.55
2022-10-21T20:43:49.589Z,5.70
2022-10-21T20:46:16.344Z,6.43
2022-10-21T20:48:43.795Z,5.68
2022-10-21T20:51:11.411Z,5.20
2022-10-21T20:53:40.067Z,5.82
2022-10-21T20:56:07.002Z,5.60
2022-10-21T20:58:34.047Z,5.55
2022-10-21T21:01:06.175Z,5.70
2022-10-21T21:03:32.552Z,5.20
2022-10-21T21:06:01.234Z,5.65
2022-10-21T21:08:27.570Z,5.78
2022-10-21T21:10:53.861Z,5.90
2022-10-21T21:13:20.680Z,5.75
2022-10-21T21:15:46.979Z,5.40
2022-10-21T21:18:14.030Z,5.70
2022-10-21T21:20:40.345Z,5.47
2022-10-21T21:23:06.656Z,5.32
2022-10-21T21:25:32.977Z,4.10
2022-10-21T21:27:59.357Z,5.28
2022-10-21T21:30:25.661Z,5.43
2022-10-21T21:32:51.957Z,5.25
2022-10-21T21:35:18.259Z,4.70
2022-10-21T21:37:44.558Z,4.65
2022-10-21T21:40:11.220Z,5.10
2022-10-21T21:42:37.595Z,5.22
2022-10-21T21:45:04.076Z,4.75
2022-10-21T21:47:30.386Z,5.57
2022-10-21T21:49:56.700Z,4.97
2022-10-21T21:52:24.454Z,5.00
2022-10-21T21:54:54.324Z,4.93
2022-10-21T21:57:27.831Z,5.28
2022-10-21T21:59:54.748Z,5.60
2022-10-21T22:02:21.083Z,4.28
2022-10-21T22:04:47.388Z,5.30
2022-10-21T22:07:13.821Z,4.93
2022-10-21T22:09:40.131Z,4.72
2022-10-21T22:12:06.433Z,5.32
2022-10-21T22:14:32.769Z,4.90
2022-10-21T22:16:59.410Z,4.15
2022-10-21T22:19:25.869Z,4.68
2022-10-21T22:21:52.246Z,3.85
2022-10-21T22:24:18.597Z,4.50
2022-10-21T22:26:44.932Z,3.70
2022-10-21T22:29:11.257Z,4.10
2022-10-21T22:31:37.633Z,4.55
2022-10-21T22:34:06.543Z,4.50
2022-10-21T22:36:35.684Z,4.80
2022-10-21T22:39:03.433Z,4.20
2022-10-21T22:41:29.744Z,4.65
2022-10-21T22:43:56.176Z,4.72
2022-10-21T22:46:34.335Z,4.20
2022-10-21T22:49:01.939Z,4.38
2022-10-21T22:51:28.244Z,4.00
2022-10-21T22:53:56.525Z,4.40
2022-10-21T22:56:23.468Z,4.15
2022-10-21T22:58:49.769Z,5.00
2022-10-21T23:01:16.097Z,4.95
2022-10-21T23:03:42.429Z,4.45
2022-10-21T23:06:08.852Z,4.97
2022-10-21T23:08:35.197Z,4.53
2022-10-21T23:11:01.564Z,3.67
2022-10-21T23:13:28.657Z,3.80
2022-10-21T23:15:54.971Z,4.13
2022-10-21T23:18:21.278Z,4.15
2022-10-21T23:20:47.577Z,4.45
2022-10-21T23:23:13.952Z,4.05
2022-10-21T23:25:40.636Z,4.40
2022-10-21T23:28:09.724Z,4.18
2022-10-21T23:30:36.994Z,5.20
2022-10-21T23:33:03.693Z,4.55
2022-10-21T23:35:30.028Z,4.97
2022-10-21T23:37:56.394Z,4.80
2022-10-21T23:40:22.704Z,5.38
2022-10-21T23:42:49.089Z,4.75
2022-10-21T23:45:15.409Z,5.43
2022-10-21T23:47:42.079Z,5.85
2022-10-21T23:50:09.155Z,5.95
2022-10-21T23:52:36.199Z,5.78
2022-10-21T23:55:02.840Z,5.90
2022-10-21T23:57:29.247Z,5.60
2022-10-21T23:59:55.648Z,5.22
